createdAt,value
2022-12-06T00:01:17.313Z,100820.06
2022-12-06T00:03:46.142Z,100824.81
2022-12-06T00:06:14.911Z,100830.94
2022-12-06T00:08:42.425Z,100835.69
2022-12-06T00:11:11.329Z,100830.59
2022-12-06T00:13:39.222Z,100831.56
2022-12-06T00:16:13.750Z,100827.34
2022-12-06T00:18:41.886Z,100826.53
2022-12-06T00:21:10.097Z,100831.78
2022-12-06T00:23:38.129Z,100830.38
2022-12-06T00:26:06.171Z,100835.78
2022-12-06T00:28:33.617Z,100834.28
2022-12-06T00:31:01.683Z,100832.66
2022-12-06T00:33:29.178Z,100828.34
2022-12-06T00:36:00.023Z,100832.19
2022-12-06T00:38:27.748Z,100827.09
2022-12-06T00:40:58.747Z,100831.63
2022-12-06T00:43:26.304Z,100823.06
2022-12-06T00:45:53.568Z,100818.88
2022-12-06T00:48:20.726Z,100813.13
2022-12-06T00:50:47.915Z,100811.44
2022-12-06T00:53:15.078Z,100812.47
2022-12-06T00:55:45.315Z,100817.81
2022-12-06T00:58:12.846Z,100800.78
2022-12-06T01:00:40.095Z,100805.22
2022-12-06T01:03:07.474Z,100803.66
2022-12-06T01:05:34.752Z,100812.41
2022-12-06T01:08:01.904Z,100808.22
2022-12-06T01:10:29.158Z,100812.75
2022-12-06T01:12:56.342Z,100814.44
2022-12-06T01:15:23.407Z,100816.97
2022-12-06T01:17:50.407Z,100811.75
2022-12-06T01:20:17.536Z,100819.56
2022-12-06T01:22:44.628Z,100822.34
2022-12-06T01:25:11.659Z,100817.84
2022-12-06T01:27:38.713Z,100822.28
2022-12-06T01:30:06.843Z,100820.78
2022-12-06T01:32:33.845Z,100816.44
2022-12-06T01:35:00.954Z,100819.00
2022-12-06T01:37:27.973Z,100815.63
2022-12-06T01:39:55.051Z,100813.91
2022-12-06T01:42:22.250Z,100826.81
2022-12-06T01:44:50.854Z,100823.34
2022-12-06T01:47:24.877Z,100825.94
2022-12-06T01:49:58.908Z,100820.78
2022-12-06T01:52:58.721Z,100820.81
2022-12-06T01:55:27.812Z,100824.31
2022-12-06T01:57:58.161Z,100819.06
2022-12-06T02:00:25.277Z,100813.97
2022-12-06T02:02:53.962Z,100810.84
2022-12-06T02:05:21.147Z,100809.47
2022-12-06T02:07:48.375Z,100801.16
2022-12-06T02:10:15.492Z,100800.63
2022-12-06T02:12:42.470Z,100798.28
2022-12-06T02:15:09.830Z,100800.84
2022-12-06T02:17:58.895Z,100805.22
2022-12-06T02:20:34.599Z,100806.28
2022-12-06T02:23:16.893Z,100804.63
2022-12-06T02:25:53.528Z,100804.59
2022-12-06T02:28:20.642Z,100810.78
2022-12-06T02:31:06.745Z,100802.31
2022-12-06T02:33:33.831Z,100799.59
2022-12-06T02:36:07.542Z,100799.69
2022-12-06T02:38:43.342Z,100800.66
2022-12-06T02:41:14.688Z,100799.84
2022-12-06T02:43:43.692Z,100797.31
2022-12-06T02:46:13.343Z,100794.06
2022-12-06T02:48:41.878Z,100792.50
2022-12-06T02:51:11.817Z,100796.94
2022-12-06T02:53:41.502Z,100797.84
2022-12-06T02:56:08.574Z,100789.28
2022-12-06T02:58:37.040Z,100790.19
2022-12-06T03:01:12.649Z,100796.28
2022-12-06T03:03:58.175Z,100799.81
2022-12-06T03:06:43.835Z,100798.19
2022-12-06T03:09:23.050Z,100788.78
2022-12-06T03:11:55.580Z,100794.78
2022-12-06T03:14:26.966Z,100781.25
2022-12-06T03:17:00.030Z,100795.06
2022-12-06T03:19:28.800Z,100793.38
2022-12-06T03:22:03.463Z,100785.72
2022-12-06T03:24:33.876Z,100786.34
2022-12-06T03:27:04.692Z,100784.56
2022-12-06T03:29:34.491Z,100782.91
2022-12-06T03:32:03.349Z,100783.81
2022-12-06T03:34:33.030Z,100779.31
2022-12-06T03:37:21.761Z,100776.47
2022-12-06T03:39:59.320Z,100775.69
2022-12-06T03:42:27.263Z,100777.41
2022-12-06T03:44:54.370Z,100770.59
2022-12-06T03:47:26.886Z,100786.75
2022-12-06T03:50:03.110Z,100784.28
2022-12-06T03:52:30.686Z,100785.25
2022-12-06T03:54:57.728Z,100776.69
2022-12-06T03:57:24.833Z,100779.31
2022-12-06T03:59:51.897Z,100775.00
2022-12-06T04:02:18.990Z,100772.38
2022-12-06T04:04:46.156Z,100770.75
2022-12-06T04:07:13.460Z,100765.59
2022-12-06T04:09:52.602Z,100766.41
2022-12-06T04:12:38.499Z,100779.22
2022-12-06T04:15:06.142Z,100773.81
2022-12-06T04:17:51.948Z,100773.78
2022-12-06T04:20:19.079Z,100769.53
2022-12-06T04:23:04.160Z,100771.25
2022-12-06T04:25:32.454Z,100770.31
2022-12-06T04:28:18.634Z,100771.63
2022-12-06T04:31:04.424Z,100757.97
2022-12-06T04:33:50.406Z,100758.72
2022-12-06T04:36:36.157Z,100762.88
2022-12-06T04:39:03.437Z,100760.50
2022-12-06T04:41:49.262Z,100763.13
2022-12-06T04:44:16.595Z,100766.66
2022-12-06T04:46:43.618Z,100768.44
2022-12-06T04:49:10.834Z,100765.81
2022-12-06T04:51:37.794Z,100774.28
2022-12-06T04:54:05.554Z,100778.72
2022-12-06T04:56:32.804Z,100776.03
2022-12-06T04:58:59.895Z,100768.50
2022-12-06T05:01:26.900Z,100780.59
2022-12-06T05:03:54.073Z,100775.47
2022-12-06T05:06:21.110Z,100773.72
2022-12-06T05:08:48.225Z,100773.69
2022-12-06T05:11:15.226Z,100771.16
2022-12-06T05:13:42.285Z,100778.88
2022-12-06T05:16:09.413Z,100772.88
2022-12-06T05:18:36.643Z,100775.41
2022-12-06T05:21:05.686Z,100774.63
2022-12-06T05:23:36.112Z,100779.00
2022-12-06T05:26:05.291Z,100775.75
2022-12-06T05:28:33.316Z,100770.59
2022-12-06T05:31:00.452Z,100779.19
2022-12-06T05:33:27.951Z,100773.13
2022-12-06T05:35:55.211Z,100777.47
2022-12-06T05:38:22.642Z,100776.84
2022-12-06T05:40:52.218Z,100775.94
2022-12-06T05:43:19.293Z,100774.25
2022-12-06T05:45:46.550Z,100781.94
2022-12-06T05:48:13.664Z,100781.06
2022-12-06T05:50:40.690Z,100788.13
2022-12-06T05:53:07.822Z,100785.69
2022-12-06T05:55:34.774Z,100781.22
2022-12-06T05:58:01.898Z,100781.25
2022-12-06T06:00:28.896Z,100774.38
2022-12-06T06:02:56.152Z,100785.59
2022-12-06T06:05:23.225Z,100785.69
2022-12-06T06:07:50.264Z,100784.00
2022-12-06T06:10:17.908Z,100788.28
2022-12-06T06:12:45.242Z,100794.22
2022-12-06T06:15:12.974Z,100784.81
2022-12-06T06:17:40.467Z,100788.31
2022-12-06T06:20:07.845Z,100789.16
2022-12-06T06:22:36.064Z,100793.56
2022-12-06T06:25:04.072Z,100790.94
2022-12-06T06:27:37.100Z,100796.88
2022-12-06T06:30:05.604Z,100786.63
2022-12-06T06:32:32.678Z,100792.69
2022-12-06T06:34:59.753Z,100790.13
2022-12-06T06:37:27.193Z,100786.56
2022-12-06T06:39:54.233Z,100797.78
2022-12-06T06:42:21.262Z,100798.47
2022-12-06T06:44:48.409Z,100809.56
2022-12-06T06:47:15.642Z,100812.22
2022-12-06T06:49:42.627Z,100807.00
2022-12-06T06:52:09.714Z,100809.50
2022-12-06T06:54:36.703Z,100820.75
2022-12-06T06:57:03.833Z,100816.28
2022-12-06T06:59:30.886Z,100824.78
2022-12-06T07:01:58.061Z,100834.97
2022-12-06T07:04:25.217Z,100832.38
2022-12-06T07:06:52.314Z,100835.81
2022-12-06T07:09:19.461Z,100839.25
2022-12-06T07:11:46.472Z,100836.69
2022-12-06T07:14:13.595Z,100842.47
2022-12-06T07:16:40.709Z,100850.19
2022-12-06T07:19:09.296Z,100851.03
2022-12-06T07:21:36.532Z,100852.00
2022-12-06T07:24:03.601Z,100856.09
2022-12-06T07:26:31.556Z,100851.78
2022-12-06T07:28:59.875Z,100851.00
2022-12-06T07:31:28.789Z,100855.28
2022-12-06T07:33:57.243Z,100857.75
2022-12-06T07:36:24.712Z,100849.19
2022-12-06T07:38:53.630Z,100859.56
2022-12-06T07:41:41.617Z,100847.50
2022-12-06T07:45:02.341Z,100848.22
2022-12-06T07:47:39.103Z,100850.84
2022-12-06T07:50:10.516Z,100856.09
2022-12-06T07:52:41.851Z,100850.06
2022-12-06T07:55:09.763Z,100863.75
2022-12-06T07:57:42.954Z,100859.59
2022-12-06T08:00:11.676Z,100871.56
2022-12-06T08:02:41.912Z,100866.59
2022-12-06T08:05:09.500Z,100864.78
2022-12-06T08:07:36.608Z,100863.03
2022-12-06T08:10:04.544Z,100866.56
2022-12-06T08:12:34.538Z,100874.41
2022-12-06T08:15:01.722Z,100876.88
2022-12-06T08:17:33.373Z,100878.72
2022-12-06T08:20:04.754Z,100880.25
2022-12-06T08:22:32.471Z,100878.56
2022-12-06T08:24:59.515Z,100890.53
2022-12-06T08:27:26.615Z,100881.03
2022-12-06T08:29:53.885Z,100882.13
2022-12-06T08:32:21.058Z,100877.88
2022-12-06T08:34:48.380Z,100873.56
2022-12-06T08:37:15.523Z,100887.25
2022-12-06T08:39:42.558Z,100882.84
2022-12-06T08:42:10.271Z,100888.91
2022-12-06T08:44:37.377Z,100886.44
2022-12-06T08:47:04.530Z,100882.06
2022-12-06T08:49:31.888Z,100885.50
2022-12-06T08:51:59.206Z,100885.44
2022-12-06T08:54:26.722Z,100886.19
2022-12-06T08:56:53.861Z,100889.69
2022-12-06T08:59:21.026Z,100890.41
2022-12-06T09:01:48.170Z,100897.88
2022-12-06T09:04:15.670Z,100895.28
2022-12-06T09:06:43.623Z,100901.94
2022-12-06T09:09:11.858Z,100894.34
2022-12-06T09:11:39.672Z,100907.94
2022-12-06T09:14:08.995Z,100902.88
2022-12-06T09:16:36.544Z,100910.56
2022-12-06T09:19:03.997Z,100903.69
2022-12-06T09:21:31.838Z,100905.56
2022-12-06T09:23:59.353Z,100909.03
2022-12-06T09:26:27.135Z,100910.72
2022-12-06T09:28:55.375Z,100908.03
2022-12-06T09:31:22.941Z,100902.91
2022-12-06T09:33:50.249Z,100903.63
2022-12-06T09:36:27.637Z,100907.88
2022-12-06T09:39:05.661Z,100909.59
2022-12-06T09:41:43.478Z,100907.28
2022-12-06T09:44:27.506Z,100909.00
2022-12-06T09:47:00.697Z,100905.19
2022-12-06T09:49:36.723Z,100908.66
2022-12-06T09:52:10.327Z,100902.75
2022-12-06T09:55:03.775Z,100900.41
2022-12-06T09:57:33.982Z,100892.47
2022-12-06T10:00:01.328Z,100898.16
2022-12-06T10:02:54.201Z,100879.91
2022-12-06T10:05:24.391Z,100883.31
2022-12-06T10:07:54.763Z,100878.91
2022-12-06T10:10:21.869Z,100880.63
2022-12-06T10:12:54.950Z,100879.78
2022-12-06T10:15:37.132Z,100879.34
2022-12-06T10:18:07.404Z,100882.94
2022-12-06T10:20:53.570Z,100880.50
2022-12-06T10:23:43.587Z,100874.31
2022-12-06T10:26:19.296Z,100870.34
2022-12-06T10:28:51.125Z,100871.44
2022-12-06T10:31:32.460Z,100865.34
2022-12-06T10:34:12.193Z,100866.63
2022-12-06T10:36:55.029Z,100868.81
2022-12-06T10:39:45.969Z,100861.59
2022-12-06T10:42:32.411Z,100856.34
2022-12-06T10:45:02.791Z,100853.91
2022-12-06T10:47:37.550Z,100846.81
2022-12-06T10:50:07.466Z,100848.97
2022-12-06T10:52:40.830Z,100847.47
2022-12-06T10:55:10.867Z,100845.09
2022-12-06T10:57:56.810Z,100835.38
2022-12-06T11:00:29.304Z,100838.94
2022-12-06T11:03:08.366Z,100844.94
2022-12-06T11:05:37.368Z,100843.66
2022-12-06T11:08:08.847Z,100836.50
2022-12-06T11:10:38.336Z,100844.13
2022-12-06T11:13:25.699Z,100843.31
2022-12-06T11:15:52.913Z,100833.69
2022-12-06T11:18:20.450Z,100840.34
2022-12-06T11:20:53.317Z,100835.94
2022-12-06T11:23:39.581Z,100832.47
2022-12-06T11:26:06.771Z,100830.63
2022-12-06T11:28:38.678Z,100825.41
2022-12-06T11:31:12.901Z,100825.41
2022-12-06T11:33:40.255Z,100820.16
2022-12-06T11:36:07.913Z,100817.03
2022-12-06T11:38:37.169Z,100815.25
2022-12-06T11:41:06.920Z,100819.22
2022-12-06T11:43:35.847Z,100810.25
2022-12-06T11:46:04.497Z,100816.59
2022-12-06T11:48:32.820Z,100806.97
2022-12-06T11:50:59.806Z,100798.91
2022-12-06T11:53:30.197Z,100800.75
2022-12-06T11:56:01.026Z,100798.34
2022-12-06T11:58:43.812Z,100792.16
2022-12-06T12:01:14.314Z,100792.16
2022-12-06T12:03:45.085Z,100791.94
2022-12-06T12:06:18.233Z,100787.56
2022-12-06T12:08:59.714Z,100783.22
2022-12-06T12:11:29.180Z,100788.13
2022-12-06T12:14:00.438Z,100782.94
2022-12-06T12:16:38.592Z,100775.19
2022-12-06T12:19:24.684Z,100769.47
2022-12-06T12:21:59.584Z,100773.63
2022-12-06T12:25:03.278Z,100766.28
2022-12-06T12:27:35.326Z,100758.47
2022-12-06T12:30:38.938Z,100762.81
2022-12-06T12:33:28.356Z,100761.09
2022-12-06T12:36:08.458Z,100759.91
2022-12-06T12:38:42.258Z,100757.88
2022-12-06T12:41:18.758Z,100756.09
2022-12-06T12:44:13.514Z,100744.94
2022-12-06T12:46:45.237Z,100742.53
2022-12-06T12:49:26.976Z,100746.19
2022-12-06T12:51:54.788Z,100748.81
2022-12-06T12:54:26.527Z,100740.72
2022-12-06T12:56:54.155Z,100737.34
2022-12-06T12:59:22.963Z,100733.50
2022-12-06T13:01:53.316Z,100730.91
2022-12-06T13:04:28.696Z,100727.25
2022-12-06T13:06:58.827Z,100718.84
2022-12-06T13:09:28.539Z,100719.75
2022-12-06T13:12:03.592Z,100723.00
2022-12-06T13:14:32.526Z,100714.31
2022-12-06T13:17:02.785Z,100708.50
2022-12-06T13:19:40.745Z,100714.53
2022-12-06T13:22:14.355Z,100712.22
2022-12-06T13:24:43.575Z,100709.88
2022-12-06T13:27:17.412Z,100708.66
2022-12-06T13:30:05.998Z,100700.94
2022-12-06T13:32:36.419Z,100705.22
2022-12-06T13:35:07.383Z,100708.44
2022-12-06T13:37:45.519Z,100710.53
2022-12-06T13:40:31.396Z,100710.22
2022-12-06T13:42:59.360Z,100701.75
2022-12-06T13:45:45.642Z,100704.16
2022-12-06T13:48:25.181Z,100692.09
2022-12-06T13:50:52.491Z,100701.75
2022-12-06T13:53:21.765Z,100700.16
2022-12-06T13:55:53.436Z,100695.84
2022-12-06T13:58:26.414Z,100700.22
2022-12-06T14:00:54.701Z,100690.88
2022-12-06T14:03:25.862Z,100701.38
2022-12-06T14:08:31.027Z,100699.75
2022-12-06T14:11:05.792Z,100704.19
2022-12-06T14:13:33.263Z,100698.16
2022-12-06T14:16:00.664Z,100695.56
2022-12-06T14:18:28.669Z,100695.47
2022-12-06T14:20:56.924Z,100703.19
2022-12-06T14:23:30.767Z,100704.94
2022-12-06T14:26:17.255Z,100705.31
2022-12-06T14:28:44.729Z,100714.84
2022-12-06T14:31:38.268Z,100714.22
2022-12-06T14:34:06.185Z,100708.94
2022-12-06T14:36:34.592Z,100709.22
2022-12-06T14:39:12.264Z,100705.03
2022-12-06T14:41:57.840Z,100713.69
2022-12-06T14:44:30.210Z,100704.53
2022-12-06T14:46:57.969Z,100703.84
2022-12-06T14:49:45.194Z,100704.75
2022-12-06T14:52:16.629Z,100704.16
2022-12-06T14:54:44.608Z,100702.63
2022-12-06T14:57:24.166Z,100702.13
2022-12-06T15:02:58.712Z,100699.81
2022-12-06T15:05:36.947Z,100696.38
2022-12-06T15:08:22.979Z,100700.09
2022-12-06T15:11:00.094Z,100707.06
2022-12-06T15:13:30.525Z,100698.44
2022-12-06T15:16:10.062Z,100703.72
2022-12-06T15:18:38.417Z,100698.81
2022-12-06T15:21:13.029Z,100704.19
2022-12-06T15:23:47.098Z,100697.41
2022-12-06T15:26:14.299Z,100702.78
2022-12-06T15:28:41.651Z,100707.59
2022-12-06T15:31:15.041Z,100701.00
2022-12-06T15:33:42.330Z,100714.16
2022-12-06T15:36:15.201Z,100714.28
2022-12-06T15:38:42.505Z,100715.84
2022-12-06T15:41:14.663Z,100718.00
2022-12-06T15:43:42.116Z,100711.25
2022-12-06T15:46:15.836Z,100711.47
2022-12-06T15:48:43.277Z,100713.38
2022-12-06T15:51:18.983Z,100713.50
2022-12-06T15:53:50.453Z,100717.09
2022-12-06T15:56:19.355Z,100718.50
2022-12-06T15:58:47.396Z,100717.81
2022-12-06T16:01:17.147Z,100717.38
2022-12-06T16:03:44.453Z,100710.53
2022-12-06T16:06:14.815Z,100717.56
2022-12-06T16:08:42.119Z,100716.03
2022-12-06T16:11:12.340Z,100721.19
2022-12-06T16:13:40.068Z,100719.59
2022-12-06T16:16:07.424Z,100718.66
2022-12-06T16:18:35.065Z,100717.94
2022-12-06T16:21:02.949Z,100714.44
2022-12-06T16:26:45.904Z,100713.41
2022-12-06T16:29:17.792Z,100713.31
2022-12-06T16:31:47.230Z,100710.59
2022-12-06T16:34:15.401Z,100721.50
2022-12-06T16:37:02.574Z,100718.84
2022-12-06T16:39:30.687Z,100717.28
2022-12-06T16:41:57.806Z,100723.25
2022-12-06T16:44:25.298Z,100714.59
2022-12-06T16:46:52.750Z,100713.59
2022-12-06T16:52:11.365Z,100701.53
2022-12-06T16:54:41.184Z,100709.13
2022-12-06T16:57:10.292Z,100709.97
2022-12-06T16:59:37.601Z,100706.38
2022-12-06T17:02:18.136Z,100708.06
2022-12-06T17:04:45.224Z,100704.59
2022-12-06T17:07:12.439Z,100708.00
2022-12-06T17:09:39.572Z,100708.81
2022-12-06T17:12:13.059Z,100708.75
2022-12-06T17:14:43.833Z,100699.28
2022-12-06T17:17:14.093Z,100704.28
2022-12-06T17:19:42.108Z,100700.75
2022-12-06T17:22:10.376Z,100705.94
2022-12-06T17:24:37.938Z,100708.53
2022-12-06T17:27:06.879Z,100695.72
2022-12-06T17:29:34.727Z,100700.69
2022-12-06T17:32:02.558Z,100701.69
2022-12-06T17:34:29.752Z,100704.31
2022-12-06T17:36:59.195Z,100703.47
2022-12-06T17:39:27.395Z,100706.09
2022-12-06T17:42:14.062Z,100711.28
2022-12-06T17:44:42.614Z,100710.56
2022-12-06T17:47:11.178Z,100711.41
2022-12-06T17:49:38.480Z,100709.59
2022-12-06T17:52:05.952Z,100713.97
2022-12-06T17:54:32.998Z,100714.13
2022-12-06T17:57:02.098Z,100713.41
2022-12-06T17:59:31.925Z,100720.00
2022-12-06T18:02:15.219Z,100713.22
2022-12-06T18:04:45.601Z,100708.81
2022-12-06T18:07:13.150Z,100714.03
2022-12-06T18:09:40.423Z,100721.00
2022-12-06T18:12:08.585Z,100710.09
2022-12-06T18:14:35.772Z,100716.31
2022-12-06T18:17:03.120Z,100720.38
2022-12-06T18:19:34.033Z,100715.13
2022-12-06T18:22:01.281Z,100715.44
2022-12-06T18:24:33.508Z,100712.00
2022-12-06T18:27:03.356Z,100711.34
2022-12-06T18:29:30.424Z,100707.97
2022-12-06T18:31:57.860Z,100710.25
2022-12-06T18:34:25.109Z,100703.47
2022-12-06T18:36:52.334Z,100711.34
2022-12-06T18:39:24.572Z,100714.03
2022-12-06T18:41:55.102Z,100717.53
2022-12-06T18:44:22.960Z,100719.31
2022-12-06T18:46:50.357Z,100715.84
2022-12-06T18:49:19.370Z,100715.75
2022-12-06T18:51:46.565Z,100718.38
2022-12-06T18:54:13.991Z,100720.16
2022-12-06T18:56:41.959Z,100727.97
2022-12-06T18:59:09.147Z,100717.75
2022-12-06T19:01:37.948Z,100724.63
2022-12-06T19:04:11.778Z,100721.19
2022-12-06T19:06:39.121Z,100719.53
2022-12-06T19:09:07.661Z,100721.25
2022-12-06T19:11:38.690Z,100720.47
2022-12-06T19:14:05.983Z,100729.09
2022-12-06T19:16:36.318Z,100728.25
2022-12-06T19:19:05.534Z,100725.44
2022-12-06T19:21:33.686Z,100724.56
2022-12-06T19:24:01.160Z,100728.06
2022-12-06T19:26:28.823Z,100727.06
2022-12-06T19:28:58.189Z,100730.44
2022-12-06T19:31:25.350Z,100726.38
2022-12-06T19:33:52.742Z,100719.38
2022-12-06T19:36:21.374Z,100716.94
2022-12-06T19:38:48.727Z,100721.00
2022-12-06T19:41:17.312Z,100724.47
2022-12-06T19:44:03.195Z,100722.53
2022-12-06T19:46:30.802Z,100722.53
2022-12-06T19:48:59.176Z,100720.22
2022-12-06T19:51:28.769Z,100712.59
2022-12-06T19:53:57.964Z,100726.41
2022-12-06T19:56:25.420Z,100723.91
2022-12-06T19:58:53.017Z,100718.69
2022-12-06T20:01:25.144Z,100719.63
2022-12-06T20:03:53.202Z,100720.47
2022-12-06T20:06:21.551Z,100718.88
2022-12-06T20:08:49.630Z,100716.34
2022-12-06T20:11:37.126Z,100723.28
2022-12-06T20:14:08.692Z,100723.41
2022-12-06T20:16:36.761Z,100719.81
2022-12-06T20:19:04.485Z,100719.78
2022-12-06T20:21:31.742Z,100718.19
2022-12-06T20:24:00.251Z,100719.63
2022-12-06T20:26:31.875Z,100725.84
2022-12-06T20:28:59.495Z,100715.69
2022-12-06T20:31:27.789Z,100714.75
2022-12-06T20:33:56.041Z,100707.03
2022-12-06T20:36:23.764Z,100695.81
2022-12-06T20:38:51.820Z,100707.59
2022-12-06T20:41:20.384Z,100700.09
2022-12-06T20:43:48.019Z,100700.13
2022-12-06T20:46:16.800Z,100689.09
2022-12-06T20:48:44.907Z,100692.56
2022-12-06T20:51:16.461Z,100699.50
2022-12-06T20:53:44.378Z,100688.13
2022-12-06T20:56:12.971Z,100694.28
2022-12-06T20:58:41.651Z,100684.94
2022-12-06T21:01:12.264Z,100685.84
2022-12-06T21:03:39.819Z,100687.59
2022-12-06T21:06:08.731Z,100683.88
2022-12-06T21:08:36.660Z,100680.69
2022-12-06T21:13:53.508Z,100678.91
2022-12-06T21:16:22.496Z,100685.06
2022-12-06T21:18:54.184Z,100687.19
2022-12-06T21:21:23.047Z,100690.69
2022-12-06T21:23:50.365Z,100695.00
2022-12-06T21:26:17.729Z,100689.16
2022-12-06T21:28:45.232Z,100696.91
2022-12-06T21:31:12.460Z,100694.34
2022-12-06T21:33:39.979Z,100690.88
2022-12-06T21:36:07.283Z,100687.53
2022-12-06T21:38:35.118Z,100693.56
2022-12-06T21:41:10.454Z,100692.53
2022-12-06T21:43:37.827Z,100695.66
2022-12-06T21:46:10.206Z,100701.50
2022-12-06T21:48:37.498Z,100699.28
2022-12-06T21:51:05.772Z,100700.13
2022-12-06T21:53:33.307Z,100699.41
2022-12-06T21:56:04.625Z,100698.88
2022-12-06T21:58:31.778Z,100700.56
2022-12-06T22:01:03.643Z,100701.59
2022-12-06T22:03:30.809Z,100706.84
2022-12-06T22:05:58.132Z,100691.56
2022-12-06T22:08:25.225Z,100692.44
2022-12-06T22:10:52.660Z,100690.59
2022-12-06T22:13:19.789Z,100685.59
2022-12-06T22:15:46.903Z,100685.69
2022-12-06T22:18:14.129Z,100689.22
2022-12-06T22:20:41.214Z,100689.34
2022-12-06T22:23:08.360Z,100685.09
2022-12-06T22:25:38.398Z,100686.63
2022-12-06T22:28:05.734Z,100684.22
2022-12-06T22:30:32.820Z,100685.97
2022-12-06T22:32:59.947Z,100697.03
2022-12-06T22:35:27.047Z,100697.63
2022-12-06T22:37:54.063Z,100690.09
2022-12-06T22:40:21.168Z,100689.22
2022-12-06T22:42:48.189Z,100695.97
2022-12-06T22:45:15.323Z,100696.84
2022-12-06T22:47:42.293Z,100692.50
2022-12-06T22:50:09.396Z,100691.69
2022-12-06T22:52:37.069Z,100699.50
2022-12-06T22:55:04.299Z,100690.97
2022-12-06T22:57:31.363Z,100694.41
2022-12-06T22:59:58.817Z,100695.25
2022-12-06T23:02:26.137Z,100697.81
2022-12-06T23:04:53.215Z,100697.75
2022-12-06T23:07:20.303Z,100692.63
2022-12-06T23:09:47.321Z,100697.75
2022-12-06T23:12:14.387Z,100699.44
2022-12-06T23:14:41.502Z,100694.31
2022-12-06T23:17:08.819Z,100682.34
2022-12-06T23:19:35.797Z,100690.06
2022-12-06T23:22:02.891Z,100685.75
2022-12-06T23:24:29.925Z,100683.16
2022-12-06T23:26:58.424Z,100680.59
2022-12-06T23:29:25.534Z,100683.97
2022-12-06T23:31:52.784Z,100673.63
2022-12-06T23:34:22.249Z,100676.25
2022-12-06T23:36:49.656Z,100667.66
2022-12-06T23:39:16.768Z,100663.38
2022-12-06T23:41:43.852Z,100663.34
2022-12-06T23:44:11.604Z,100660.78
2022-12-06T23:46:39.297Z,100661.59
2022-12-06T23:49:06.881Z,100647.91
2022-12-06T23:51:35.805Z,100646.00
2022-12-06T23:54:04.870Z,100643.56
2022-12-06T23:56:33.440Z,100639.38
2022-12-06T23:59:01.103Z,100641.03
